createdAt,value
2019-02-06T00:01:29.947Z,11.40
2019-02-06T00:03:56.989Z,10.85
2019-02-06T00:06:24.023Z,11.22
2019-02-06T00:08:51.531Z,12.33
2019-02-06T00:11:18.571Z,11.90
2019-02-06T00:13:46.248Z,11.08
2019-02-06T00:16:13.201Z,11.35
2019-02-06T00:18:40.192Z,10.68
2019-02-06T00:21:07.420Z,12.33
2019-02-06T00:23:34.499Z,11.40
2019-02-06T00:26:01.510Z,11.78
2019-02-06T00:28:28.977Z,11.00
2019-02-06T00:30:56.096Z,11.83
2019-02-06T00:33:23.089Z,11.60
2019-02-06T00:35:50.121Z,11.28
2019-02-06T00:38:17.086Z,11.20
2019-02-06T00:40:44.151Z,11.93
2019-02-06T00:43:11.156Z,11.78
2019-02-06T00:45:38.153Z,12.50
2019-02-06T00:48:05.067Z,12.95
2019-02-06T00:50:32.067Z,12.20
2019-02-06T00:52:59.121Z,11.00
2019-02-06T00:55:26.162Z,11.50
2019-02-06T00:57:53.158Z,11.63
2019-02-06T01:00:21.875Z,11.25
2019-02-06T01:02:50.009Z,11.83
2019-02-06T01:05:17.457Z,11.73
2019-02-06T01:07:44.913Z,11.65
2019-02-06T01:10:12.720Z,11.68
2019-02-06T01:12:39.823Z,12.43
2019-02-06T01:15:08.344Z,11.88
2019-02-06T01:17:35.972Z,13.32
2019-02-06T01:20:04.272Z,11.40
2019-02-06T01:22:31.679Z,12.33
2019-02-06T01:24:58.763Z,12.37
2019-02-06T01:27:25.820Z,11.50
2019-02-06T01:29:52.778Z,11.68
2019-02-06T01:32:19.785Z,12.28
2019-02-06T01:34:46.871Z,13.03
2019-02-06T01:37:13.884Z,12.70
2019-02-06T01:39:40.941Z,13.00
2019-02-06T01:42:08.218Z,13.35
2019-02-06T01:44:35.175Z,13.25
2019-02-06T01:47:02.144Z,13.80
2019-02-06T01:49:29.162Z,13.13
2019-02-06T01:51:56.228Z,12.50
2019-02-06T01:54:23.349Z,13.55
2019-02-06T01:56:50.359Z,12.05
2019-02-06T01:59:17.272Z,13.13
2019-02-06T02:01:44.572Z,13.85
2019-02-06T02:04:11.476Z,13.95
2019-02-06T02:06:38.544Z,13.30
2019-02-06T02:09:07.662Z,13.35
2019-02-06T02:11:34.702Z,11.78
2019-02-06T02:14:01.944Z,13.78
2019-02-06T02:16:29.001Z,13.43
2019-02-06T02:18:56.031Z,12.40
2019-02-06T02:21:23.204Z,13.60
2019-02-06T02:23:50.249Z,12.73
2019-02-06T02:26:17.293Z,13.00
2019-02-06T02:28:44.342Z,13.03
2019-02-06T02:31:11.607Z,13.25
2019-02-06T02:33:38.640Z,14.33
2019-02-06T02:36:15.354Z,14.03
2019-02-06T02:38:34.520Z,12.63
2019-02-06T02:41:01.510Z,13.80
2019-02-06T02:43:28.508Z,13.00
2019-02-06T02:45:55.573Z,14.53
2019-02-06T02:48:22.542Z,13.50
2019-02-06T02:50:49.673Z,13.15
2019-02-06T02:53:16.661Z,15.68
2019-02-06T02:55:43.673Z,13.35
2019-02-06T02:58:10.737Z,13.75
2019-02-06T03:00:50.489Z,14.30
2019-02-06T03:03:25.635Z,13.13
2019-02-06T03:05:52.663Z,14.43
2019-02-06T03:08:19.643Z,13.60
2019-02-06T03:10:46.988Z,13.00
2019-02-06T03:13:13.982Z,14.15
2019-02-06T03:15:41.075Z,13.68
2019-02-06T03:18:08.057Z,13.80
2019-02-06T03:20:35.014Z,13.28
2019-02-06T03:23:02.004Z,13.60
2019-02-06T03:25:29.015Z,13.68
2019-02-06T03:27:56.313Z,13.65
2019-02-06T03:30:23.494Z,14.07
2019-02-06T03:32:50.529Z,14.35
2019-02-06T03:35:17.644Z,15.68
2019-02-06T03:37:44.620Z,13.98
2019-02-06T03:40:12.650Z,14.40
2019-02-06T03:42:40.900Z,12.82
2019-02-06T03:45:08.866Z,14.78
2019-02-06T03:47:36.110Z,13.48
2019-02-06T03:50:05.137Z,13.35
2019-02-06T03:52:32.167Z,14.35
2019-02-06T03:54:59.217Z,13.45
2019-02-06T03:57:26.222Z,14.00
2019-02-06T03:59:54.371Z,12.95
2019-02-06T04:02:23.157Z,13.35
2019-02-06T04:04:50.601Z,14.25
2019-02-06T04:07:19.428Z,12.93
2019-02-06T04:09:49.903Z,14.50
2019-02-06T04:12:16.841Z,13.72
2019-02-06T04:14:43.864Z,13.43
2019-02-06T04:17:10.907Z,13.43
2019-02-06T04:19:37.974Z,15.30
2019-02-06T04:22:05.338Z,14.87
2019-02-06T04:24:32.454Z,13.30
2019-02-06T04:26:59.503Z,14.38
2019-02-06T04:29:26.463Z,13.60
2019-02-06T04:31:53.492Z,12.95
2019-02-06T04:34:22.292Z,14.15
2019-02-06T04:36:49.297Z,13.25
2019-02-06T04:39:18.266Z,13.20
2019-02-06T04:41:45.321Z,12.50
2019-02-06T04:44:12.314Z,13.25
2019-02-06T04:46:39.435Z,13.50
2019-02-06T04:49:06.382Z,13.78
2019-02-06T04:51:33.426Z,13.72
2019-02-06T04:54:00.407Z,12.95
2019-02-06T04:56:27.451Z,13.45
2019-02-06T04:58:56.119Z,12.68
2019-02-06T05:01:23.183Z,13.40
2019-02-06T05:03:50.234Z,13.50
2019-02-06T05:06:17.357Z,13.22
2019-02-06T05:08:44.326Z,13.93
2019-02-06T05:11:11.345Z,13.40
2019-02-06T05:13:38.441Z,12.18
2019-02-06T05:16:05.640Z,13.50
2019-02-06T05:18:32.905Z,12.20
2019-02-06T05:20:59.979Z,15.18
2019-02-06T05:23:26.953Z,14.13
2019-02-06T05:25:53.871Z,13.18
2019-02-06T05:28:20.961Z,14.65
2019-02-06T05:30:48.005Z,13.70
2019-02-06T05:33:15.010Z,13.43
2019-02-06T05:35:42.062Z,13.90
2019-02-06T05:38:09.110Z,13.80
2019-02-06T05:40:36.165Z,13.00
2019-02-06T05:43:04.330Z,12.85
2019-02-06T05:45:31.300Z,13.28
2019-02-06T05:47:58.286Z,14.75
2019-02-06T05:50:25.271Z,12.33
2019-02-06T05:52:52.262Z,13.40
2019-02-06T05:55:19.316Z,13.50
2019-02-06T05:57:47.036Z,13.05
2019-02-06T06:00:21.452Z,12.90
2019-02-06T06:02:48.459Z,14.55
2019-02-06T06:05:16.568Z,14.28
2019-02-06T06:07:45.478Z,14.55
2019-02-06T06:10:13.731Z,13.43
2019-02-06T06:12:41.285Z,13.15
2019-02-06T06:15:09.922Z,14.03
2019-02-06T06:17:36.923Z,14.10
2019-02-06T06:20:05.735Z,12.30
2019-02-06T06:22:32.689Z,13.43
2019-02-06T06:24:59.580Z,14.43
2019-02-06T06:27:26.641Z,14.25
2019-02-06T06:29:53.699Z,14.85
2019-02-06T06:32:21.195Z,14.93
2019-02-06T06:34:48.205Z,13.70
2019-02-06T06:37:15.178Z,14.40
2019-02-06T06:39:42.243Z,15.30
2019-02-06T06:42:09.454Z,14.28
2019-02-06T06:44:36.445Z,14.53
2019-02-06T06:47:03.659Z,15.50
2019-02-06T06:49:30.667Z,14.03
2019-02-06T06:51:57.978Z,13.75
2019-02-06T06:54:25.025Z,15.45
2019-02-06T06:56:51.983Z,14.90
2019-02-06T06:59:19.055Z,15.83
2019-02-06T07:01:46.053Z,15.20
2019-02-06T07:04:13.164Z,14.30
2019-02-06T07:06:40.164Z,16.95
2019-02-06T07:09:08.073Z,14.47
2019-02-06T07:11:35.047Z,15.45
2019-02-06T07:14:03.130Z,15.28
2019-02-06T07:16:30.129Z,14.63
2019-02-06T07:18:57.225Z,15.03
2019-02-06T07:21:24.132Z,15.68
2019-02-06T07:23:51.217Z,16.37
2019-02-06T07:26:18.216Z,14.40
2019-02-06T07:28:45.471Z,16.40
2019-02-06T07:31:12.509Z,14.70
2019-02-06T07:33:39.655Z,14.93
2019-02-06T07:36:06.708Z,16.10
2019-02-06T07:38:34.563Z,13.70
2019-02-06T07:41:01.666Z,15.15
2019-02-06T07:43:28.714Z,15.70
2019-02-06T07:45:55.715Z,14.93
2019-02-06T07:48:22.850Z,15.65
2019-02-06T07:50:49.860Z,15.18
2019-02-06T07:53:16.781Z,13.70
2019-02-06T07:55:43.723Z,15.68
2019-02-06T07:58:10.756Z,14.50
2019-02-06T08:00:37.689Z,15.83
2019-02-06T08:03:04.743Z,17.23
2019-02-06T08:05:31.849Z,16.20
2019-02-06T08:07:58.918Z,16.42
2019-02-06T08:10:28.234Z,15.65
2019-02-06T08:12:55.135Z,15.83
2019-02-06T08:15:22.326Z,17.12
2019-02-06T08:17:49.304Z,17.40
2019-02-06T08:20:17.178Z,18.92
2019-02-06T08:22:44.172Z,18.50
2019-02-06T08:25:12.133Z,18.82
2019-02-06T08:27:39.290Z,16.90
2019-02-06T08:30:11.332Z,17.45
2019-02-06T08:32:38.366Z,21.17
2019-02-06T08:35:06.115Z,19.52
2019-02-06T08:37:33.192Z,22.30
2019-02-06T08:40:00.350Z,20.05
2019-02-06T08:42:29.181Z,19.65
2019-02-06T08:44:56.283Z,17.82
2019-02-06T08:47:23.493Z,17.40
2019-02-06T08:49:50.739Z,18.20
2019-02-06T08:52:17.840Z,17.80
2019-02-06T08:54:45.072Z,18.15
2019-02-06T08:57:12.388Z,16.32
2019-02-06T08:59:39.863Z,16.23
2019-02-06T09:02:07.237Z,17.62
2019-02-06T09:04:34.629Z,19.57
2019-02-06T09:07:05.709Z,17.75
2019-02-06T09:09:35.019Z,18.10
2019-02-06T09:12:02.330Z,21.05
2019-02-06T09:14:29.526Z,19.23
2019-02-06T09:16:56.875Z,20.20
2019-02-06T09:19:24.031Z,19.32
2019-02-06T09:21:51.032Z,19.17
2019-02-06T09:24:18.210Z,19.48
2019-02-06T09:26:45.097Z,18.50
2019-02-06T09:29:12.262Z,19.20
2019-02-06T09:31:41.634Z,18.98
2019-02-06T09:34:09.680Z,20.00
2019-02-06T09:36:37.341Z,19.32
2019-02-06T09:39:11.642Z,18.50
2019-02-06T09:41:36.285Z,19.85
2019-02-06T09:44:03.408Z,20.40
2019-02-06T09:46:30.569Z,18.10
2019-02-06T09:48:57.572Z,19.77
2019-02-06T09:51:24.696Z,19.55
2019-02-06T09:53:52.357Z,18.50
2019-02-06T09:56:19.437Z,19.02
2019-02-06T09:58:46.441Z,19.92
2019-02-06T10:01:13.447Z,19.82
2019-02-06T10:03:40.461Z,20.10
2019-02-06T10:06:07.416Z,20.48
2019-02-06T10:08:34.322Z,19.23
2019-02-06T10:11:01.367Z,19.52
2019-02-06T10:13:28.435Z,21.20
2019-02-06T10:15:55.497Z,21.75
2019-02-06T10:18:23.042Z,18.55
2019-02-06T10:20:50.823Z,19.87
2019-02-06T10:23:18.424Z,19.32
2019-02-06T10:25:45.432Z,19.52
2019-02-06T10:28:14.217Z,20.12
2019-02-06T10:30:44.076Z,20.55
2019-02-06T10:33:11.109Z,21.77
2019-02-06T10:35:38.157Z,20.10
2019-02-06T10:38:05.575Z,19.30
2019-02-06T10:40:32.599Z,21.33
2019-02-06T10:43:00.703Z,20.20
2019-02-06T10:45:27.717Z,19.23
2019-02-06T10:47:55.100Z,20.92
2019-02-06T10:50:22.976Z,18.95
2019-02-06T10:52:50.006Z,20.05
2019-02-06T10:55:17.298Z,19.77
2019-02-06T10:57:44.306Z,20.43
2019-02-06T11:00:19.310Z,20.50
2019-02-06T11:02:46.405Z,21.20
2019-02-06T11:05:13.908Z,20.85
2019-02-06T11:07:40.973Z,21.02
2019-02-06T11:10:09.037Z,21.02
2019-02-06T11:12:36.057Z,21.73
2019-02-06T11:15:04.547Z,22.90
2019-02-06T11:17:31.880Z,22.85
2019-02-06T11:19:58.940Z,22.22
2019-02-06T11:22:26.518Z,22.17
2019-02-06T11:24:53.565Z,22.25
2019-02-06T11:27:20.692Z,23.95
2019-02-06T11:29:48.524Z,21.75
2019-02-06T11:32:15.682Z,21.93
2019-02-06T11:34:42.587Z,23.95
2019-02-06T11:37:09.773Z,22.37
2019-02-06T11:39:36.824Z,23.65
2019-02-06T11:42:04.073Z,22.27
2019-02-06T11:44:31.011Z,22.27
2019-02-06T11:46:57.935Z,21.48
2019-02-06T11:49:26.876Z,23.55
2019-02-06T11:51:53.877Z,21.62
2019-02-06T11:54:20.930Z,23.07
2019-02-06T11:56:47.990Z,22.22
2019-02-06T11:59:15.456Z,24.10
2019-02-06T12:01:42.834Z,22.82
2019-02-06T12:04:09.804Z,23.57
2019-02-06T12:06:36.877Z,21.10
2019-02-06T12:09:10.194Z,23.90
2019-02-06T12:11:37.173Z,23.30
2019-02-06T12:14:04.322Z,21.75
2019-02-06T12:16:31.740Z,24.47
2019-02-06T12:18:58.911Z,22.85
2019-02-06T12:21:26.025Z,23.42
2019-02-06T12:23:52.991Z,23.90
2019-02-06T12:26:20.010Z,25.80
2019-02-06T12:28:47.007Z,26.07
2019-02-06T12:31:14.183Z,24.37
2019-02-06T12:33:41.378Z,22.98
2019-02-06T12:36:08.671Z,25.77
2019-02-06T12:38:35.700Z,25.48
2019-02-06T12:41:03.366Z,24.23
2019-02-06T12:43:30.440Z,22.77
2019-02-06T12:45:57.371Z,23.40
2019-02-06T12:48:24.285Z,23.52
2019-02-06T12:50:51.468Z,25.05
2019-02-06T12:53:20.056Z,26.02
2019-02-06T12:55:47.100Z,25.10
2019-02-06T12:58:14.399Z,25.70
2019-02-06T13:00:41.705Z,25.92
2019-02-06T13:03:13.607Z,24.90
2019-02-06T13:05:41.112Z,24.85
2019-02-06T13:08:20.919Z,26.50
2019-02-06T13:10:48.349Z,27.02
2019-02-06T13:13:15.802Z,26.17
2019-02-06T13:15:42.781Z,25.65
2019-02-06T13:18:09.859Z,26.77
2019-02-06T13:20:36.871Z,26.45
2019-02-06T13:23:04.507Z,27.05
2019-02-06T13:25:31.568Z,26.07
2019-02-06T13:27:58.612Z,25.55
2019-02-06T13:30:30.216Z,28.12
2019-02-06T13:32:57.383Z,26.80
2019-02-06T13:35:24.378Z,26.93
2019-02-06T13:37:51.378Z,25.10
2019-02-06T13:40:19.802Z,25.97
2019-02-06T13:42:46.793Z,25.88
2019-02-06T13:45:20.864Z,26.15
2019-02-06T13:47:48.169Z,24.82
2019-02-06T13:50:22.040Z,26.45
2019-02-06T13:52:44.683Z,25.72
2019-02-06T13:55:14.473Z,26.35
2019-02-06T13:57:40.737Z,25.77
2019-02-06T14:00:11.847Z,24.60
2019-02-06T14:02:39.182Z,25.43
2019-02-06T14:05:06.597Z,25.35
2019-02-06T14:07:33.473Z,24.43
2019-02-06T14:10:00.722Z,23.50
2019-02-06T14:12:27.823Z,24.57
2019-02-06T14:14:54.814Z,24.25
2019-02-06T14:17:21.871Z,25.10
2019-02-06T14:19:48.923Z,24.60
2019-02-06T14:22:16.145Z,23.83
2019-02-06T14:24:50.020Z,23.67
2019-02-06T14:27:54.193Z,23.85
2019-02-06T14:30:49.498Z,23.77
2019-02-06T14:33:41.376Z,25.40
2019-02-06T14:36:47.453Z,24.50
2019-02-06T14:39:45.490Z,23.10
2019-02-06T14:42:34.540Z,24.07
2019-02-06T14:45:35.439Z,23.25
2019-02-06T14:48:43.018Z,24.67
2019-02-06T14:52:10.783Z,24.98
2019-02-06T14:55:21.644Z,23.20
2019-02-06T14:58:25.300Z,21.42
2019-02-06T15:01:55.524Z,20.60
2019-02-06T15:05:01.549Z,22.45
2019-02-06T15:08:22.817Z,21.95
2019-02-06T15:11:23.605Z,21.50
2019-02-06T15:14:22.893Z,21.75
2019-02-06T15:17:43.779Z,22.30
2019-02-06T15:20:51.374Z,22.52
2019-02-06T15:23:55.840Z,22.80
2019-02-06T15:27:19.472Z,22.67
2019-02-06T15:29:56.012Z,20.48
2019-02-06T15:33:17.148Z,23.45
2019-02-06T15:36:34.774Z,21.20
2019-02-06T15:39:40.512Z,22.62
2019-02-06T15:42:32.917Z,22.70
2019-02-06T15:45:26.972Z,22.25
2019-02-06T15:48:25.363Z,22.30
2019-02-06T15:51:52.615Z,24.10
2019-02-06T15:55:12.539Z,22.67
2019-02-06T15:58:15.672Z,25.43
2019-02-06T16:01:23.102Z,23.42
2019-02-06T16:04:37.277Z,25.65
2019-02-06T16:07:48.845Z,24.05
2019-02-06T16:10:58.108Z,24.05
2019-02-06T16:14:12.164Z,25.15
2019-02-06T16:17:30.558Z,25.62
2019-02-06T16:20:35.184Z,26.45
2019-02-06T16:23:52.325Z,26.65
2019-02-06T16:26:56.081Z,24.77
2019-02-06T16:30:00.389Z,24.75
2019-02-06T16:32:55.169Z,25.57
2019-02-06T16:36:12.420Z,24.80
2019-02-06T16:39:05.827Z,25.80
2019-02-06T16:41:57.043Z,27.87
2019-02-06T16:45:01.085Z,24.55
2019-02-06T16:48:10.227Z,24.30
2019-02-06T16:50:58.694Z,25.52
2019-02-06T16:53:49.729Z,24.15
2019-02-06T16:57:07.728Z,25.15
2019-02-06T17:00:21.028Z,24.55
2019-02-06T17:03:19.156Z,23.02
2019-02-06T17:06:49.452Z,23.60
2019-02-06T17:09:56.630Z,22.27
2019-02-06T17:13:17.624Z,23.12
2019-02-06T17:16:22.956Z,22.30
2019-02-06T17:19:25.930Z,22.90
2019-02-06T17:22:43.455Z,22.82
2019-02-06T17:25:36.992Z,22.55
2019-02-06T17:28:36.738Z,22.15
2019-02-06T17:31:33.038Z,21.23
2019-02-06T17:34:31.495Z,21.23
2019-02-06T17:37:24.733Z,21.82
2019-02-06T17:40:32.143Z,23.45
2019-02-06T17:43:24.049Z,22.93
2019-02-06T17:46:23.345Z,21.25
2019-02-06T17:49:44.113Z,21.33
2019-02-06T17:52:52.649Z,22.15
2019-02-06T17:55:23.830Z,25.08
2019-02-06T17:57:54.290Z,22.30
2019-02-06T18:00:31.406Z,23.87
2019-02-06T18:03:00.797Z,25.00
2019-02-06T18:05:27.792Z,23.30
2019-02-06T18:07:55.209Z,22.17
2019-02-06T18:10:23.694Z,23.15
2019-02-06T18:12:50.803Z,25.57
2019-02-06T18:15:17.970Z,26.25
2019-02-06T18:17:45.057Z,25.75
2019-02-06T18:20:13.847Z,25.92
2019-02-06T18:22:41.163Z,23.18
2019-02-06T18:25:09.034Z,23.32
2019-02-06T18:27:36.549Z,24.65
2019-02-06T18:30:06.885Z,23.30
2019-02-06T18:32:34.604Z,24.27
2019-02-06T18:35:03.393Z,22.70
2019-02-06T18:37:30.538Z,23.05
2019-02-06T18:39:58.583Z,22.02
2019-02-06T18:42:25.717Z,23.12
2019-02-06T18:44:52.948Z,21.48
2019-02-06T18:47:21.172Z,22.70
2019-02-06T18:49:48.647Z,23.10
2019-02-06T18:52:20.481Z,22.32
2019-02-06T18:54:44.538Z,23.38
2019-02-06T18:57:11.558Z,23.95
2019-02-06T18:59:38.672Z,23.83
2019-02-06T19:02:05.699Z,24.40
2019-02-06T19:04:33.180Z,23.80
2019-02-06T19:07:00.224Z,24.30
2019-02-06T19:09:28.970Z,23.77
2019-02-06T19:12:04.154Z,27.37
2019-02-06T19:14:31.596Z,23.90
2019-02-06T19:16:58.609Z,23.92
2019-02-06T19:19:26.050Z,23.83
2019-02-06T19:21:53.125Z,23.65
2019-02-06T19:24:23.233Z,23.27
2019-02-06T19:26:51.381Z,23.75
2019-02-06T19:29:18.427Z,21.97
2019-02-06T19:31:45.642Z,22.65
2019-02-06T19:34:13.832Z,22.20
2019-02-06T19:36:41.044Z,23.20
2019-02-06T19:39:08.530Z,22.65
2019-02-06T19:41:35.756Z,25.27
2019-02-06T19:44:03.447Z,22.60
2019-02-06T19:46:30.452Z,24.55
2019-02-06T19:48:58.669Z,24.40
2019-02-06T19:51:26.074Z,23.92
2019-02-06T19:53:53.096Z,26.35
2019-02-06T19:56:20.230Z,25.65
2019-02-06T19:58:47.330Z,24.47
2019-02-06T20:01:15.800Z,24.87
2019-02-06T20:03:43.251Z,23.55
2019-02-06T20:06:12.318Z,24.95
2019-02-06T20:08:41.426Z,25.40
2019-02-06T20:11:08.756Z,25.27
2019-02-06T20:13:36.328Z,25.37
2019-02-06T20:16:03.792Z,24.72
2019-02-06T20:18:34.346Z,23.67
2019-02-06T20:21:01.485Z,24.72
2019-02-06T20:23:28.927Z,25.27
2019-02-06T20:25:56.369Z,24.10
2019-02-06T20:28:23.495Z,24.47
2019-02-06T20:30:50.566Z,24.32
2019-02-06T20:33:20.770Z,22.95
2019-02-06T20:35:47.969Z,23.73
2019-02-06T20:38:15.216Z,22.45
2019-02-06T20:40:42.223Z,24.10
2019-02-06T20:43:09.933Z,23.27
2019-02-06T20:45:36.961Z,24.95
2019-02-06T20:48:04.005Z,22.30
2019-02-06T20:50:32.189Z,23.22
2019-02-06T20:53:45.350Z,24.92
2019-02-06T20:56:14.751Z,22.65
2019-02-06T20:58:41.873Z,23.62
2019-02-06T21:01:09.193Z,23.77
2019-02-06T21:03:36.339Z,23.80
2019-02-06T21:06:03.443Z,23.38
2019-02-06T21:08:30.522Z,21.82
2019-02-06T21:10:57.683Z,23.02
2019-02-06T21:13:32.769Z,25.35
2019-02-06T21:15:53.675Z,24.20
2019-02-06T21:18:21.180Z,23.90
2019-02-06T21:20:48.235Z,23.62
2019-02-06T21:23:15.271Z,23.87
2019-02-06T21:25:42.328Z,23.42
2019-02-06T21:28:09.357Z,23.83
2019-02-06T21:30:36.802Z,22.13
2019-02-06T21:33:04.055Z,22.35
2019-02-06T21:35:31.192Z,22.70
2019-02-06T21:37:58.594Z,24.32
2019-02-06T21:40:27.436Z,22.60
2019-02-06T21:42:54.520Z,21.50
2019-02-06T21:45:21.856Z,23.38
2019-02-06T21:47:49.162Z,24.12
2019-02-06T21:50:17.291Z,23.90
2019-02-06T21:52:44.748Z,23.52
2019-02-06T21:55:13.550Z,24.00
2019-02-06T21:57:41.617Z,24.37
2019-02-06T22:00:13.356Z,24.57
2019-02-06T22:02:40.835Z,23.38
2019-02-06T22:05:08.001Z,23.02
2019-02-06T22:07:35.209Z,22.90
2019-02-06T22:10:04.145Z,23.62
2019-02-06T22:12:31.182Z,22.87
2019-02-06T22:14:58.411Z,22.75
2019-02-06T22:17:25.483Z,22.95
2019-02-06T22:19:52.553Z,22.65
2019-02-06T22:22:19.546Z,24.27
2019-02-06T22:24:46.859Z,23.18
2019-02-06T22:27:15.324Z,22.30
2019-02-06T22:29:42.817Z,24.72
2019-02-06T22:32:09.889Z,22.87
2019-02-06T22:34:36.931Z,22.75
2019-02-06T22:37:04.793Z,21.50
2019-02-06T22:39:31.757Z,24.23
2019-02-06T22:41:58.996Z,22.77
2019-02-06T22:44:26.045Z,24.40
2019-02-06T22:46:53.792Z,23.83
2019-02-06T22:49:20.892Z,21.17
2019-02-06T22:51:47.988Z,21.95
2019-02-06T22:54:17.101Z,23.25
2019-02-06T22:56:44.727Z,23.92
2019-02-06T22:59:13.723Z,23.35
2019-02-06T23:01:53.057Z,24.98
2019-02-06T23:04:20.369Z,25.35
2019-02-06T23:06:47.509Z,25.55
2019-02-06T23:09:14.787Z,23.42
2019-02-06T23:11:41.845Z,24.70
2019-02-06T23:14:17.092Z,25.62
2019-02-06T23:16:37.984Z,24.95
2019-02-06T23:19:05.053Z,25.68
2019-02-06T23:21:32.346Z,24.27
2019-02-06T23:24:04.866Z,23.60
2019-02-06T23:26:31.970Z,26.02
2019-02-06T23:28:59.583Z,26.10
2019-02-06T23:31:26.576Z,25.12
2019-02-06T23:33:54.009Z,24.35
2019-02-06T23:36:21.038Z,26.80
2019-02-06T23:38:49.322Z,27.65
2019-02-06T23:41:16.229Z,25.75
2019-02-06T23:43:43.245Z,28.00
2019-02-06T23:46:10.160Z,24.12
2019-02-06T23:48:37.184Z,27.00
2019-02-06T23:51:04.606Z,25.17
2019-02-06T23:53:31.610Z,25.52
2019-02-06T23:55:58.723Z,27.02
2019-02-06T23:58:25.765Z,23.30
